Randolph Air Force Base
KRND : now visible

Airfield :











YOU CAN JOIN US ON...

 
LOGIN :

Register | Disclaimer

   EN    FR    IT 

 









Legend :    VFR   Marginal VFR   IFR   Intensive IFR   Very Intensive IFR
Visi :
Ceiling :
>= 8 km
>= 3000ft
5 to 8 km
1000 to 3000 ft
1500m to 5 km
500 to 1000 ft
800 to 1500m
200 to 500 ft
< 800m
< 200 ft
Symbols :   Thunderstorms  Fog  Heavy snow  Heavy precipitations  Wind > 20 kt







- Airport Elevation : 761 ft


KRND - Randolph Air Force Base

CURRENT METAR :
  • 261536Z AUTO 15012KT 10SM FEW020 SCT025 OVC045 27/22 A3006 RMK AO2 SLP172 $

EXPIRED METARs :
  • 261526Z AUTO 16011KT 10SM SCT021 BKN027 OVC045 27/22 A3006 RMK AO2 CIG 025V045 CIG 023 RWY33R SLP172 $
  • 261516Z AUTO 17013KT 10SM SCT019 OVC043 27/22 A3006 RMK AO2 SLP172 $
  • 261511Z AUTO 16014KT 10SM SCT019 BKN027 BKN037 OVC045 27/22 A3006 RMK AO2 CIG 017V027 CIG 017 RWY33R SLP172 $
  • 261456Z AUTO 16015KT 10SM BKN017 OVC039 26/22 A3006 RMK AO2 CIG 016 RWY15R CIG 016 RWY33R SLP172 T02590219 51015 $
  • 261441Z AUTO 17012G21KT 10SM BKN017 BKN028 OVC039 26/22 A3006 RMK AO2 CIG 017V036 BKN017 V SCT CIG 015 RWY15R CIG 016 RWY33R SLP172 $
  • 261426Z AUTO 17012KT 10SM SCT015 BKN021 BKN027 OVC037 26/22 A3005 RMK AO2 CIG 021V035 BKN021 V SCT CIG 014 RWY15R CIG 014 RWY33R SLP169 $
  • 261421Z AUTO 16012KT 10SM FEW014 SCT021 BKN034 OVC041 26/22 A3006 RMK AO2 SLP172 $
  • 261356Z AUTO 16013KT 10SM BKN012 BKN020 OVC038 25/22 A3006 RMK AO2 CIG 011 RWY33R SLP172 T02520223 $
  • 261336Z AUTO 16012KT 10SM BKN011 OVC039 25/23 A3005 RMK AO2 CIG 010 RWY33R SLP168 $

Expired Forecast.
KZHU FIR / North America



MET'MAP, your aeronautical weather chart ! - Copyright ORBIFLY December 2007 - Disclaimer

ORBIFLY MET'MAP TEAM :

Programming & Development : Alexandra Zaïnal
Concept & Development : Baudouin d'Aumeries
Co-Development & Prog : Marc-Olivier Méhu
Technical & hardware support : Manuel Goepfert

Contact : metmap@orbifly.com




SOURCES & CREDITS :

   NOAA       Earth
Advisory